Hovedside
METAR-TAF:

METAR-TAF

Lufthavner :

Utti lufthavn

Utti, Finland

breddegrad: 60-54N, lengdegrad: 026-56E, høyde over havet: 100 m

Gjeldene værobservasjon

Denne rapporten ble laget for 12 minutter siden, klokken 12:50 UTC
Vind 5 kt fra Nord, skiftende mellom Nordvest og Nordøst
Temperatur 21°C
Luftfuktighet 49%
Trykk 1010 hPa
Sikt 10 km eller mer
ingen skyer under 1500 m og ingen bygeskyer

METAR: EFUT 151250Z 36005KT 320V040 CAVOK 21/10 Q1010

Tid: 16:02 (13:02 UTC)

Varsel

Denne rapporten ble laget for 1 time og 32 minutter siden, klokken 11:30 UTC
Varsel gyldig fra 15. klokken 12 UTC til 15. klokken 19 UTC
Vind 5 kt fra Øst
Sikt 10 km eller mer
ingen skyer under 1500 m og ingen bygeskyer
Midlertidig
fra 15. klokken 12 UTC til 15. klokken 18 UTC
Få skyer i en høyde av 4000 ft, Bygeskyer.
Brutte skyer i en høyde av 7000 ft

TAF: EFUT 151130Z 1512/1519 08005KT CAVOK TEMPO 1512/1518 FEW040CB BKN070

Værobservasjoner og værvarsel for over 4000 flyplasser (METAR- og TAF-rapporter).

Tilgjengelige stasjoner er representert av de røde og gule prikkene på kartet.

Hold musepekeren over prikken for å se navnet på stasjonen.

Klikk så for å se værobservasjoner og -varsler.

For å forandre kartet kan du klikke på den grønne knappen med svart kryss for å zoome inn, på den grønne knappen med strek for å zoome ut, eller på de grønne pilene for å se tilstøtende kart.


METAR-TAF: